createdAt,value
2018-07-28T00:01:50.050Z,26.00
2018-07-28T00:04:18.477Z,26.10
2018-07-28T00:06:46.966Z,26.10
2018-07-28T00:09:15.559Z,26.20
2018-07-28T00:11:44.127Z,26.10
2018-07-28T00:14:12.619Z,26.10
2018-07-28T00:19:09.154Z,26.20
2018-07-28T00:21:37.506Z,26.10
2018-07-28T00:24:05.916Z,26.10
2018-07-28T00:26:34.305Z,26.00
2018-07-28T00:29:02.674Z,25.90
2018-07-28T00:31:31.057Z,25.90
2018-07-28T00:33:59.476Z,25.90
2018-07-28T00:36:27.884Z,25.90
2018-07-28T00:41:24.305Z,25.90
2018-07-28T00:43:52.681Z,25.90
2018-07-28T00:46:21.058Z,25.90
2018-07-28T00:48:49.446Z,25.90
2018-07-28T00:51:17.826Z,25.90
2018-07-28T00:56:14.266Z,25.90
2018-07-28T00:58:42.724Z,25.80
2018-07-28T01:01:12.005Z,25.80
2018-07-28T01:03:40.980Z,25.80
2018-07-28T01:06:09.433Z,25.70
2018-07-28T01:08:37.882Z,25.80
2018-07-28T01:11:06.351Z,25.70
2018-07-28T01:13:34.839Z,25.70
2018-07-28T01:16:03.266Z,25.60
2018-07-28T01:18:31.791Z,25.60
2018-07-28T01:21:00.204Z,25.60
2018-07-28T01:23:28.637Z,25.60
2018-07-28T01:25:56.967Z,25.50
2018-07-28T01:28:25.311Z,25.50
2018-07-28T01:30:53.725Z,25.50
2018-07-28T01:33:22.077Z,25.50
2018-07-28T01:35:50.483Z,25.50
2018-07-28T01:38:18.839Z,25.50
2018-07-28T01:40:47.184Z,25.50
2018-07-28T01:43:15.534Z,25.50
2018-07-28T01:45:44.006Z,25.50
2018-07-28T01:48:12.526Z,25.50
2018-07-28T01:50:40.908Z,25.40
2018-07-28T01:53:09.288Z,25.30
2018-07-28T01:55:37.686Z,25.30
2018-07-28T01:58:06.069Z,25.20
2018-07-28T02:00:35.902Z,25.30
2018-07-28T02:05:32.439Z,25.30
2018-07-28T02:08:00.897Z,25.30
2018-07-28T02:10:29.413Z,25.30
2018-07-28T02:12:58.266Z,25.30
2018-07-28T02:15:26.790Z,25.20
2018-07-28T02:17:55.396Z,25.10
2018-07-28T02:20:23.935Z,25.10
2018-07-28T02:22:52.511Z,25.10
2018-07-28T02:25:21.100Z,25.00
2018-07-28T02:27:49.912Z,24.90
2018-07-28T02:30:18.371Z,24.90
2018-07-28T02:32:46.906Z,24.80
2018-07-28T02:35:15.551Z,24.90
2018-07-28T02:37:44.006Z,24.90
2018-07-28T02:40:12.435Z,24.90
2018-07-28T02:42:40.810Z,24.80
2018-07-28T02:45:09.254Z,24.80
2018-07-28T02:47:37.930Z,24.80
2018-07-28T02:50:07.261Z,24.80
2018-07-28T02:52:36.067Z,24.80
2018-07-28T02:55:05.097Z,24.70
2018-07-28T02:57:33.582Z,24.70
2018-07-28T03:00:02.858Z,24.70
2018-07-28T03:02:31.348Z,24.60
2018-07-28T03:04:59.831Z,24.60
2018-07-28T03:07:28.316Z,24.70
2018-07-28T03:09:56.730Z,24.60
2018-07-28T03:12:25.375Z,24.60
2018-07-28T03:14:53.928Z,24.60
2018-07-28T03:17:22.437Z,24.60
2018-07-28T03:22:19.277Z,24.70
2018-07-28T03:24:47.789Z,24.70
2018-07-28T03:27:16.258Z,24.60
2018-07-28T03:29:44.757Z,24.50
2018-07-28T03:32:13.160Z,24.40
2018-07-28T03:34:41.703Z,24.30
2018-07-28T03:37:10.132Z,24.30
2018-07-28T03:39:38.565Z,24.20
2018-07-28T03:42:06.979Z,24.20
2018-07-28T03:44:35.373Z,24.20
2018-07-28T03:47:03.872Z,24.20
2018-07-28T03:49:32.345Z,24.20
2018-07-28T03:52:00.749Z,24.20
2018-07-28T03:54:29.158Z,24.20
2018-07-28T03:56:57.545Z,24.10
2018-07-28T03:59:25.952Z,24.10
2018-07-28T04:01:54.389Z,24.10
2018-07-28T04:04:22.765Z,24.00
2018-07-28T04:06:51.123Z,23.90
2018-07-28T04:09:19.507Z,23.90
2018-07-28T04:11:47.914Z,24.00
2018-07-28T04:14:16.329Z,24.00
2018-07-28T04:16:44.715Z,24.00
2018-07-28T04:19:13.056Z,23.90
2018-07-28T04:21:41.448Z,23.90
2018-07-28T04:24:09.813Z,23.80
2018-07-28T04:26:38.210Z,23.80
2018-07-28T04:29:06.587Z,23.90
2018-07-28T04:31:35.020Z,23.90
2018-07-28T04:34:03.405Z,23.90
2018-07-28T04:36:31.876Z,23.90
2018-07-28T04:39:00.269Z,23.90
2018-07-28T04:41:28.710Z,23.70
2018-07-28T04:43:57.164Z,23.60
2018-07-28T04:46:25.505Z,23.50
2018-07-28T04:48:53.906Z,23.60
2018-07-28T04:51:22.418Z,23.70
2018-07-28T04:53:50.785Z,23.80
2018-07-28T04:56:19.246Z,23.70
2018-07-28T04:58:47.851Z,23.70
2018-07-28T05:01:16.253Z,23.80
2018-07-28T05:03:44.712Z,23.90
2018-07-28T05:06:13.137Z,24.00
2018-07-28T05:08:41.530Z,24.10
2018-07-28T05:11:09.919Z,23.90
2018-07-28T05:13:38.410Z,24.00
2018-07-28T05:16:06.861Z,24.10
2018-07-28T05:18:35.302Z,24.20
2018-07-28T05:21:03.774Z,24.10
2018-07-28T05:23:32.174Z,23.90
2018-07-28T05:26:00.627Z,24.00
2018-07-28T05:28:28.984Z,24.10
2018-07-28T05:30:57.341Z,24.20
2018-07-28T05:33:25.744Z,24.20
2018-07-28T05:35:54.295Z,24.10
2018-07-28T05:38:22.711Z,24.20
2018-07-28T05:40:51.109Z,24.30
2018-07-28T05:43:19.529Z,24.30
2018-07-28T05:45:48.123Z,24.30
2018-07-28T05:48:16.538Z,24.40
2018-07-28T05:50:44.910Z,24.60
2018-07-28T05:53:13.307Z,24.60
2018-07-28T05:55:41.717Z,25.10
2018-07-28T05:58:10.191Z,25.80
2018-07-28T06:00:38.618Z,26.80
2018-07-28T06:03:07.670Z,27.50
2018-07-28T06:05:37.411Z,27.90
2018-07-28T06:08:06.454Z,28.80
2018-07-28T06:10:34.876Z,29.70
2018-07-28T06:13:03.218Z,29.40
2018-07-28T06:15:31.659Z,30.30
2018-07-28T06:18:00.020Z,30.60
2018-07-28T06:20:28.397Z,31.10
2018-07-28T06:22:56.798Z,31.00
2018-07-28T06:25:25.201Z,31.10
2018-07-28T06:27:53.576Z,30.50
2018-07-28T06:30:22.030Z,30.70
2018-07-28T06:32:50.531Z,30.30
2018-07-28T06:35:18.934Z,30.60
2018-07-28T06:37:47.391Z,31.60
2018-07-28T06:40:15.765Z,31.40
2018-07-28T06:42:44.300Z,31.00
2018-07-28T06:45:12.710Z,30.20
2018-07-28T06:47:41.202Z,29.80
2018-07-28T06:50:09.570Z,29.70
2018-07-28T06:52:37.917Z,29.60
2018-07-28T06:55:06.521Z,29.50
2018-07-28T06:57:34.891Z,29.90
2018-07-28T07:00:03.377Z,30.50
2018-07-28T07:02:31.726Z,31.70
2018-07-28T07:05:00.089Z,32.80
2018-07-28T07:07:28.824Z,33.50
2018-07-28T07:09:57.174Z,33.30
2018-07-28T07:12:25.540Z,32.40
2018-07-28T07:14:53.939Z,32.00
2018-07-28T07:17:22.317Z,31.10
2018-07-28T07:19:50.784Z,29.90
2018-07-28T07:22:19.122Z,29.10
2018-07-28T07:24:47.546Z,28.60
2018-07-28T07:27:16.005Z,28.30
2018-07-28T07:29:44.493Z,28.20
2018-07-28T07:32:12.940Z,28.30
2018-07-28T07:34:41.366Z,28.40
2018-07-28T07:37:09.782Z,28.30
2018-07-28T07:39:38.145Z,27.90
2018-07-28T07:42:07.213Z,28.00
2018-07-28T07:44:35.658Z,27.90
2018-07-28T07:47:04.137Z,28.30
2018-07-28T07:49:32.622Z,28.80
2018-07-28T07:52:01.033Z,28.60
2018-07-28T07:54:29.417Z,28.30
2018-07-28T07:56:57.852Z,28.20
2018-07-28T07:59:26.291Z,28.80
2018-07-28T08:01:54.695Z,29.40
2018-07-28T08:04:23.076Z,29.60
2018-07-28T08:06:51.486Z,29.30
2018-07-28T08:09:19.938Z,29.10
2018-07-28T08:11:48.330Z,28.60
2018-07-28T08:14:16.689Z,28.80
2018-07-28T08:16:44.989Z,29.60
2018-07-28T08:19:13.461Z,30.00
2018-07-28T08:21:41.930Z,30.70
2018-07-28T08:29:06.515Z,32.50
2018-07-28T08:31:34.920Z,32.10
2018-07-28T08:34:03.342Z,31.90
2018-07-28T08:36:31.716Z,31.30
2018-07-28T08:39:00.090Z,30.80
2018-07-28T08:41:28.469Z,30.20
2018-07-28T08:43:56.932Z,29.40
2018-07-28T08:46:25.331Z,29.20
2018-07-28T08:48:53.772Z,28.80
2018-07-28T08:51:22.182Z,28.60
2018-07-28T08:56:18.657Z,28.20
2018-07-28T09:01:15.079Z,28.10
2018-07-28T09:03:43.386Z,28.00
2018-07-28T09:06:11.806Z,27.90
2018-07-28T09:08:40.203Z,27.80
2018-07-28T09:11:08.605Z,27.80
2018-07-28T09:13:36.990Z,27.70
2018-07-28T09:16:05.443Z,27.80
2018-07-28T09:18:33.932Z,27.90
2018-07-28T09:21:02.352Z,28.00
2018-07-28T09:23:30.701Z,27.50
2018-07-28T09:25:59.116Z,27.50
2018-07-28T09:28:27.511Z,27.50
2018-07-28T09:30:55.925Z,27.40
2018-07-28T09:33:24.290Z,27.50
2018-07-28T09:35:53.231Z,27.30
2018-07-28T09:38:21.558Z,27.10
2018-07-28T09:40:49.878Z,27.00
2018-07-28T09:43:18.725Z,27.00
2018-07-28T09:45:47.044Z,27.30
2018-07-28T09:48:15.489Z,27.60
2018-07-28T09:50:43.846Z,27.90
2018-07-28T09:53:12.202Z,28.10
2018-07-28T09:55:40.563Z,28.30
2018-07-28T09:58:08.966Z,28.80
2018-07-28T10:00:42.619Z,29.00
2018-07-28T10:03:10.975Z,29.20
2018-07-28T10:05:39.468Z,29.40
2018-07-28T10:08:07.786Z,29.90
2018-07-28T10:10:37.057Z,30.30
2018-07-28T10:13:05.458Z,31.20
2018-07-28T10:15:33.825Z,31.50
2018-07-28T10:18:02.231Z,31.50
2018-07-28T10:20:35.029Z,31.50
2018-07-28T10:23:03.525Z,31.60
2018-07-28T10:25:31.836Z,31.60
2018-07-28T10:28:00.470Z,32.50
2018-07-28T10:30:28.834Z,32.80
2018-07-28T10:32:57.213Z,32.00
2018-07-28T10:35:25.734Z,32.20
2018-07-28T10:37:54.135Z,33.10
2018-07-28T10:40:22.458Z,33.50
2018-07-28T10:42:50.821Z,33.70
2018-07-28T10:45:19.194Z,32.60
2018-07-28T10:47:47.573Z,31.50
2018-07-28T10:50:15.919Z,30.90
2018-07-28T10:52:44.242Z,31.10
2018-07-28T10:55:12.660Z,31.30
2018-07-28T10:57:41.044Z,31.40
2018-07-28T11:02:37.549Z,31.30
2018-07-28T11:05:06.681Z,31.20
2018-07-28T11:07:35.204Z,31.00
2018-07-28T11:10:03.647Z,31.20
2018-07-28T11:12:32.014Z,31.00
2018-07-28T11:15:00.406Z,31.50
2018-07-28T11:17:28.773Z,32.40
2018-07-28T11:19:57.150Z,33.20
2018-07-28T11:22:25.486Z,34.10
2018-07-28T11:24:53.832Z,34.50
2018-07-28T11:27:22.182Z,34.00
2018-07-28T11:29:50.525Z,33.00
2018-07-28T11:32:30.124Z,32.70
2018-07-28T11:35:09.757Z,33.10
2018-07-28T11:38:01.962Z,33.60
2018-07-28T11:40:42.527Z,33.20
2018-07-28T11:43:22.242Z,33.10
2018-07-28T11:45:50.663Z,33.60
2018-07-28T11:48:19.037Z,33.60
2018-07-28T11:50:47.406Z,34.00
2018-07-28T11:53:15.801Z,34.40
2018-07-28T11:55:44.134Z,33.90
2018-07-28T11:58:12.582Z,33.70
2018-07-28T12:00:40.849Z,34.00
2018-07-28T12:03:09.217Z,34.20
2018-07-28T12:05:37.606Z,33.90
2018-07-28T12:08:06.055Z,33.50
2018-07-28T12:10:34.413Z,33.00
2018-07-28T12:13:02.781Z,33.30
2018-07-28T12:15:31.132Z,33.60
2018-07-28T12:17:59.475Z,33.30
2018-07-28T12:20:27.821Z,33.30
2018-07-28T12:22:56.230Z,33.40
2018-07-28T12:25:24.643Z,33.30
2018-07-28T12:27:54.029Z,33.00
2018-07-28T12:30:22.424Z,33.40
2018-07-28T12:32:50.782Z,33.30
2018-07-28T12:35:19.166Z,34.00
2018-07-28T12:37:47.547Z,34.20
2018-07-28T12:40:16.227Z,34.10
2018-07-28T12:42:44.605Z,33.90
2018-07-28T12:45:12.954Z,33.70
2018-07-28T12:47:41.319Z,33.70
2018-07-28T12:50:09.937Z,33.30
2018-07-28T12:52:38.331Z,32.60
2018-07-28T12:55:06.746Z,32.50
2018-07-28T12:57:35.077Z,32.30
2018-07-28T13:00:03.513Z,32.30
2018-07-28T13:02:31.906Z,32.20
2018-07-28T13:05:00.272Z,32.10
2018-07-28T13:07:28.654Z,32.10
2018-07-28T13:09:57.007Z,32.30
2018-07-28T13:12:25.419Z,32.50
2018-07-28T13:14:53.735Z,32.60
2018-07-28T13:17:22.111Z,32.40
2018-07-28T13:19:50.473Z,32.40
2018-07-28T13:22:18.885Z,32.50
2018-07-28T13:24:47.264Z,32.20
2018-07-28T13:27:15.676Z,31.90
2018-07-28T13:29:44.137Z,31.60
2018-07-28T13:32:12.453Z,32.00
2018-07-28T13:34:40.887Z,32.30
2018-07-28T13:37:09.235Z,32.40
2018-07-28T13:39:37.589Z,32.20
2018-07-28T13:42:05.967Z,32.00
2018-07-28T13:44:34.571Z,31.80
2018-07-28T13:47:02.967Z,31.50
2018-07-28T13:49:31.327Z,31.40
2018-07-28T13:51:59.714Z,30.50
2018-07-28T13:54:28.063Z,29.10
2018-07-28T13:56:56.391Z,28.40
2018-07-28T13:59:24.797Z,27.80
2018-07-28T14:01:53.177Z,27.30
2018-07-28T14:04:21.564Z,27.00
2018-07-28T14:06:49.911Z,26.40
2018-07-28T14:09:18.400Z,25.40
2018-07-28T14:16:43.001Z,24.10
2018-07-28T14:19:11.385Z,24.10
2018-07-28T14:21:39.710Z,24.30
2018-07-28T14:24:08.080Z,24.40
2018-07-28T14:26:36.538Z,24.80
2018-07-28T14:29:05.015Z,25.20
2018-07-28T14:31:33.365Z,25.50
2018-07-28T14:34:01.761Z,25.20
2018-07-28T14:36:30.085Z,25.30
2018-07-28T14:38:58.755Z,25.30
2018-07-28T14:41:27.115Z,25.30
2018-07-28T14:43:55.560Z,25.60
2018-07-28T14:46:23.941Z,25.80
2018-07-28T14:48:52.343Z,26.00
2018-07-28T14:51:20.665Z,26.10
2018-07-28T14:53:49.087Z,26.50
2018-07-28T14:56:17.461Z,26.90
2018-07-28T14:58:45.800Z,27.20
2018-07-28T15:01:14.146Z,27.70
2018-07-28T15:03:42.518Z,28.00
2018-07-28T15:06:11.113Z,28.40
2018-07-28T15:08:39.532Z,28.50
2018-07-28T15:11:07.998Z,28.40
2018-07-28T15:13:36.454Z,28.50
2018-07-28T15:16:04.877Z,28.60
2018-07-28T15:18:33.202Z,28.60
2018-07-28T15:21:01.522Z,28.40
2018-07-28T15:23:29.873Z,28.30
2018-07-28T15:25:58.380Z,28.40
2018-07-28T15:28:26.765Z,28.40
2018-07-28T15:30:55.228Z,28.40
2018-07-28T15:33:23.573Z,28.30
2018-07-28T15:35:52.013Z,28.20
2018-07-28T15:38:20.353Z,28.30
2018-07-28T15:40:48.800Z,28.50
2018-07-28T15:43:17.409Z,28.70
2018-07-28T15:45:45.782Z,28.80
2018-07-28T15:48:14.097Z,28.80
2018-07-28T15:50:42.505Z,28.90
2018-07-28T15:53:10.952Z,29.00
2018-07-28T15:58:07.464Z,29.30
2018-07-28T16:00:35.753Z,29.40
2018-07-28T16:03:04.131Z,29.20
2018-07-28T16:05:32.465Z,29.10
2018-07-28T16:08:00.820Z,29.20
2018-07-28T16:10:29.185Z,29.20
2018-07-28T16:12:57.559Z,29.20
2018-07-28T16:15:25.905Z,29.20
2018-07-28T16:17:54.469Z,29.20
2018-07-28T16:20:22.894Z,29.40
2018-07-28T16:22:51.524Z,29.50
2018-07-28T16:25:19.845Z,29.40
2018-07-28T16:27:48.358Z,29.40
2018-07-28T16:30:16.619Z,29.30
2018-07-28T16:32:45.017Z,29.20
2018-07-28T16:35:13.401Z,29.40
2018-07-28T16:37:41.763Z,29.20
2018-07-28T16:40:10.203Z,29.10
2018-07-28T16:42:43.140Z,29.00
2018-07-28T16:45:11.589Z,29.20
2018-07-28T16:47:39.938Z,29.60
2018-07-28T16:50:08.480Z,29.70
2018-07-28T16:52:36.817Z,29.60
2018-07-28T16:55:05.340Z,29.40
2018-07-28T16:57:33.717Z,29.30
2018-07-28T17:00:02.112Z,29.30
2018-07-28T17:02:30.494Z,29.20
2018-07-28T17:04:58.838Z,29.30
2018-07-28T17:07:27.170Z,29.40
2018-07-28T17:09:55.649Z,29.30
2018-07-28T17:12:24.074Z,29.40
2018-07-28T17:14:52.442Z,29.60
2018-07-28T17:17:20.830Z,29.60
2018-07-28T17:19:49.438Z,29.70
2018-07-28T17:22:18.093Z,29.60
2018-07-28T17:24:46.529Z,29.50
2018-07-28T17:27:14.863Z,29.40
2018-07-28T17:29:43.245Z,29.30
2018-07-28T17:32:11.622Z,29.30
2018-07-28T17:34:39.987Z,29.20
2018-07-28T17:37:08.423Z,29.00
2018-07-28T17:39:36.778Z,29.00
2018-07-28T17:42:05.175Z,28.80
2018-07-28T17:44:33.530Z,28.60
2018-07-28T17:47:01.888Z,28.60
2018-07-28T17:49:30.261Z,28.50
2018-07-28T17:51:58.653Z,28.40
2018-07-28T17:54:27.009Z,28.30
2018-07-28T17:56:55.392Z,28.30
2018-07-28T17:59:23.733Z,28.30
2018-07-28T18:01:52.118Z,28.20
2018-07-28T18:04:20.545Z,28.20
2018-07-28T18:06:48.955Z,28.20
2018-07-28T18:09:17.318Z,28.10
2018-07-28T18:11:45.757Z,28.20
2018-07-28T18:14:14.165Z,28.20
2018-07-28T18:16:42.545Z,28.20
2018-07-28T18:19:10.965Z,28.20
2018-07-28T18:21:39.323Z,28.30
2018-07-28T18:26:35.952Z,28.20
2018-07-28T18:29:04.425Z,28.10
2018-07-28T18:31:32.765Z,27.90
2018-07-28T18:34:01.116Z,27.90
2018-07-28T18:36:29.423Z,27.80
2018-07-28T18:38:57.825Z,27.70
2018-07-28T18:41:26.171Z,27.80
2018-07-28T18:43:54.572Z,27.70
2018-07-28T18:46:22.962Z,27.60
2018-07-28T18:48:51.383Z,27.50
2018-07-28T18:51:19.697Z,27.50
2018-07-28T18:53:48.116Z,27.40
2018-07-28T18:56:16.510Z,27.30
2018-07-28T18:58:44.903Z,27.30
2018-07-28T19:01:13.399Z,27.30
2018-07-28T19:03:41.774Z,27.30
2018-07-28T19:06:10.308Z,27.20
2018-07-28T19:08:38.682Z,27.20
2018-07-28T19:11:07.589Z,27.10
2018-07-28T19:14:45.005Z,27.10
2018-07-28T19:17:13.476Z,27.10
2018-07-28T19:19:41.884Z,27.00
2018-07-28T19:22:15.724Z,26.90
2018-07-28T19:24:44.094Z,26.90
2018-07-28T19:27:12.574Z,26.80
2018-07-28T19:29:43.390Z,26.80
2018-07-28T19:32:12.039Z,26.80
2018-07-28T19:34:40.830Z,26.70
2018-07-28T19:37:14.596Z,26.60
2018-07-28T19:39:42.938Z,26.50
2018-07-28T19:42:16.889Z,26.50
2018-07-28T19:44:45.223Z,26.50
2018-07-28T19:47:13.678Z,26.50
2018-07-28T19:49:42.029Z,26.50
2018-07-28T19:52:10.390Z,26.40
2018-07-28T19:54:38.867Z,26.40
2018-07-28T19:57:07.303Z,26.30
2018-07-28T19:59:35.659Z,26.30
2018-07-28T20:02:04.120Z,26.30
2018-07-28T20:04:33.174Z,26.30
2018-07-28T20:07:01.551Z,26.30
2018-07-28T20:09:29.940Z,26.20
2018-07-28T20:11:58.557Z,26.20
2018-07-28T20:14:27.085Z,26.10
2018-07-28T20:16:55.453Z,26.10
2018-07-28T20:19:26.273Z,26.10
2018-07-28T20:21:55.410Z,26.00
2018-07-28T20:24:24.343Z,26.00
2018-07-28T20:26:52.693Z,25.90
2018-07-28T20:29:21.674Z,25.90
2018-07-28T20:31:50.065Z,25.80
2018-07-28T20:34:18.708Z,25.90
2018-07-28T20:36:47.111Z,25.80
2018-07-28T20:41:43.566Z,25.80
2018-07-28T20:44:12.092Z,25.70
2018-07-28T20:46:40.566Z,25.60
2018-07-28T20:49:08.932Z,25.50
2018-07-28T20:51:37.406Z,25.50
2018-07-28T20:54:06.194Z,25.50
2018-07-28T20:56:34.657Z,25.50
2018-07-28T20:59:03.087Z,25.40
2018-07-28T21:01:31.556Z,25.40
2018-07-28T21:03:59.911Z,25.30
2018-07-28T21:06:28.313Z,25.30
2018-07-28T21:08:56.700Z,25.30
2018-07-28T21:11:25.128Z,25.20
2018-07-28T21:13:53.581Z,25.20
2018-07-28T21:16:21.984Z,25.10
2018-07-28T21:18:50.331Z,25.20
2018-07-28T21:21:19.680Z,25.10
2018-07-28T21:26:16.603Z,25.00
2018-07-28T21:28:44.968Z,25.00
2018-07-28T21:31:13.405Z,25.00
2018-07-28T21:33:41.809Z,25.00
2018-07-28T21:36:10.155Z,25.00
2018-07-28T21:38:38.516Z,24.90
2018-07-28T21:41:07.131Z,24.90
2018-07-28T21:43:35.553Z,24.90
2018-07-28T21:46:03.977Z,24.90
2018-07-28T21:48:32.416Z,24.90
2018-07-28T21:51:00.856Z,24.90
2018-07-28T21:53:29.340Z,24.80
2018-07-28T21:55:57.801Z,24.70
2018-07-28T21:58:26.287Z,24.80
2018-07-28T22:01:07.219Z,24.80
2018-07-28T22:03:35.931Z,24.70
2018-07-28T22:06:04.354Z,24.70
2018-07-28T22:08:32.820Z,24.60
2018-07-28T22:11:01.141Z,24.60
2018-07-28T22:13:29.986Z,24.60
2018-07-28T22:15:58.310Z,24.60
2018-07-28T22:18:26.824Z,24.60
2018-07-28T22:20:55.332Z,24.50
2018-07-28T22:23:23.842Z,24.50
2018-07-28T22:25:52.212Z,24.50
2018-07-28T22:28:20.741Z,24.60
2018-07-28T22:30:49.147Z,24.60
2018-07-28T22:33:17.515Z,24.60
2018-07-28T22:35:45.929Z,24.50
2018-07-28T22:38:14.347Z,24.60
2018-07-28T22:40:42.732Z,24.50
2018-07-28T22:43:11.087Z,24.50
2018-07-28T22:45:40.150Z,24.40
2018-07-28T22:48:08.526Z,24.40
2018-07-28T22:50:36.922Z,24.30
2018-07-28T22:53:05.302Z,24.30
2018-07-28T22:55:33.657Z,24.30
2018-07-28T22:58:02.097Z,24.30
2018-07-28T23:00:30.470Z,24.20
2018-07-28T23:02:58.826Z,24.20
2018-07-28T23:05:27.196Z,24.30
2018-07-28T23:07:55.544Z,24.30
2018-07-28T23:12:52.032Z,24.30
2018-07-28T23:15:20.414Z,24.20
2018-07-28T23:17:48.801Z,24.10
2018-07-28T23:20:17.236Z,24.00
2018-07-28T23:22:45.647Z,24.10
2018-07-28T23:25:13.984Z,24.00
2018-07-28T23:27:42.455Z,23.90
2018-07-28T23:30:11.645Z,23.90
2018-07-28T23:32:40.413Z,24.00
2018-07-28T23:35:09.041Z,24.10
2018-07-28T23:37:37.441Z,24.20
2018-07-28T23:40:06.104Z,24.30
2018-07-28T23:42:34.620Z,24.30
2018-07-28T23:45:03.165Z,24.20
2018-07-28T23:47:31.566Z,24.10
2018-07-28T23:49:59.969Z,24.00
2018-07-28T23:52:28.437Z,24.00
2018-07-28T23:54:56.806Z,24.10
2018-07-28T23:57:25.193Z,23.90
2018-07-28T23:59:53.682Z,23.80
